sensor_id;sensor_type;location;lat;lon;timestamp;temperature;humidity
7846;DHT22;3968;51.424;6.788;2023-11-21T00:00:15;8.90;99.90
7846;DHT22;3968;51.424;6.788;2023-11-21T00:02:41;8.90;99.90
7846;DHT22;3968;51.424;6.788;2023-11-21T00:05:11;8.90;99.90
7846;DHT22;3968;51.424;6.788;2023-11-21T00:07:38;8.90;99.90
7846;DHT22;3968;51.424;6.788;2023-11-21T00:10:04;8.90;99.90
7846;DHT22;3968;51.424;6.788;2023-11-21T00:12:36;9.00;99.90
7846;DHT22;3968;51.424;6.788;2023-11-21T00:15:03;9.00;99.90
7846;DHT22;3968;51.424;6.788;2023-11-21T00:17:30;9.00;99.90
7846;DHT22;3968;51.424;6.788;2023-11-21T00:19:56;9.00;99.90
7846;DHT22;3968;51.424;6.788;2023-11-21T00:22:21;8.90;99.90
7846;DHT22;3968;51.424;6.788;2023-11-21T00:24:47;8.80;99.90
7846;DHT22;3968;51.424;6.788;2023-11-21T00:27:13;8.80;99.90
7846;DHT22;3968;51.424;6.788;2023-11-21T00:29:39;8.80;99.90
7846;DHT22;3968;51.424;6.788;2023-11-21T00:32:05;8.80;99.90
7846;DHT22;3968;51.424;6.788;2023-11-21T00:34:32;8.90;99.90
7846;DHT22;3968;51.424;6.788;2023-11-21T00:36:58;8.90;99.90
7846;DHT22;3968;51.424;6.788;2023-11-21T00:39:23;9.00;99.90
7846;DHT22;3968;51.424;6.788;2023-11-21T00:41:49;9.00;99.90
7846;DHT22;3968;51.424;6.788;2023-11-21T00:44:15;9.00;99.90
7846;DHT22;3968;51.424;6.788;2023-11-21T00:46:41;9.00;99.90
7846;DHT22;3968;51.424;6.788;2023-11-21T00:49:07;8.90;99.90
7846;DHT22;3968;51.424;6.788;2023-11-21T00:51:33;8.90;99.90
7846;DHT22;3968;51.424;6.788;2023-11-21T00:53:59;8.80;99.90
7846;DHT22;3968;51.424;6.788;2023-11-21T00:56:25;8.70;99.90
7846;DHT22;3968;51.424;6.788;2023-11-21T00:58:50;8.70;99.90
7846;DHT22;3968;51.424;6.788;2023-11-21T01:01:18;8.70;99.90
7846;DHT22;3968;51.424;6.788;2023-11-21T01:03:46;8.70;99.90
7846;DHT22;3968;51.424;6.788;2023-11-21T01:06:11;8.60;99.90
7846;DHT22;3968;51.424;6.788;2023-11-21T01:08:37;8.70;99.90
7846;DHT22;3968;51.424;6.788;2023-11-21T01:11:03;8.70;99.90
7846;DHT22;3968;51.424;6.788;2023-11-21T01:13:30;8.70;99.90
7846;DHT22;3968;51.424;6.788;2023-11-21T01:15:56;8.70;99.90
7846;DHT22;3968;51.424;6.788;2023-11-21T01:18:21;8.70;99.90
7846;DHT22;3968;51.424;6.788;2023-11-21T01:20:47;8.70;99.90
7846;DHT22;3968;51.424;6.788;2023-11-21T01:23:15;8.70;99.90
7846;DHT22;3968;51.424;6.788;2023-11-21T01:25:41;8.70;99.90
7846;DHT22;3968;51.424;6.788;2023-11-21T01:28:07;8.70;99.90
7846;DHT22;3968;51.424;6.788;2023-11-21T01:30:32;8.70;99.90
7846;DHT22;3968;51.424;6.788;2023-11-21T01:32:58;8.70;99.90
7846;DHT22;3968;51.424;6.788;2023-11-21T01:35:24;8.80;99.90
7846;DHT22;3968;51.424;6.788;2023-11-21T01:37:50;8.80;99.90
7846;DHT22;3968;51.424;6.788;2023-11-21T01:40:16;8.80;99.90
7846;DHT22;3968;51.424;6.788;2023-11-21T01:42:42;8.80;99.90
7846;DHT22;3968;51.424;6.788;2023-11-21T01:45:09;8.80;99.90
7846;DHT22;3968;51.424;6.788;2023-11-21T01:47:36;8.80;99.90
7846;DHT22;3968;51.424;6.788;2023-11-21T01:50:02;8.80;99.90
7846;DHT22;3968;51.424;6.788;2023-11-21T01:52:30;8.80;99.90
7846;DHT22;3968;51.424;6.788;2023-11-21T01:54:56;8.80;99.90
7846;DHT22;3968;51.424;6.788;2023-11-21T01:57:23;8.80;99.90
7846;DHT22;3968;51.424;6.788;2023-11-21T01:59:49;8.80;99.90
7846;DHT22;3968;51.424;6.788;2023-11-21T02:02:15;8.80;99.90
7846;DHT22;3968;51.424;6.788;2023-11-21T02:04:42;8.90;99.90
7846;DHT22;3968;51.424;6.788;2023-11-21T02:07:08;8.90;99.90
7846;DHT22;3968;51.424;6.788;2023-11-21T02:09:33;8.90;99.90
7846;DHT22;3968;51.424;6.788;2023-11-21T02:12:00;8.90;99.90
7846;DHT22;3968;51.424;6.788;2023-11-21T02:14:26;8.90;99.90
7846;DHT22;3968;51.424;6.788;2023-11-21T02:16:53;8.90;99.90
7846;DHT22;3968;51.424;6.788;2023-11-21T02:19:20;9.00;99.90
7846;DHT22;3968;51.424;6.788;2023-11-21T02:21:49;9.00;99.90
7846;DHT22;3968;51.424;6.788;2023-11-21T02:24:20;8.90;99.90
7846;DHT22;3968;51.424;6.788;2023-11-21T02:26:47;8.90;99.90
7846;DHT22;3968;51.424;6.788;2023-11-21T02:29:13;9.00;99.90
7846;DHT22;3968;51.424;6.788;2023-11-21T02:31:39;9.00;99.90
7846;DHT22;3968;51.424;6.788;2023-11-21T02:34:14;9.00;99.90
7846;DHT22;3968;51.424;6.788;2023-11-21T02:36:40;9.00;99.90
7846;DHT22;3968;51.424;6.788;2023-11-21T02:39:05;9.00;99.90
7846;DHT22;3968;51.424;6.788;2023-11-21T02:41:32;9.00;99.90
7846;DHT22;3968;51.424;6.788;2023-11-21T02:44:00;9.00;99.90
7846;DHT22;3968;51.424;6.788;2023-11-21T02:46:26;9.00;99.90
7846;DHT22;3968;51.424;6.788;2023-11-21T02:48:51;9.00;99.90
7846;DHT22;3968;51.424;6.788;2023-11-21T02:51:19;9.00;99.90
7846;DHT22;3968;51.424;6.788;2023-11-21T02:53:45;9.00;99.90
7846;DHT22;3968;51.424;6.788;2023-11-21T02:56:12;9.00;99.90
7846;DHT22;3968;51.424;6.788;2023-11-21T02:58:41;9.00;99.90
7846;DHT22;3968;51.424;6.788;2023-11-21T03:01:07;9.00;99.90
7846;DHT22;3968;51.424;6.788;2023-11-21T03:03:32;8.90;99.90
7846;DHT22;3968;51.424;6.788;2023-11-21T03:05:58;8.90;99.90
7846;DHT22;3968;51.424;6.788;2023-11-21T03:08:24;8.90;99.90
7846;DHT22;3968;51.424;6.788;2023-11-21T03:10:49;9.00;99.90
7846;DHT22;3968;51.424;6.788;2023-11-21T03:13:15;9.00;99.90
7846;DHT22;3968;51.424;6.788;2023-11-21T03:15:40;8.90;99.90
7846;DHT22;3968;51.424;6.788;2023-11-21T03:18:08;8.90;99.90
7846;DHT22;3968;51.424;6.788;2023-11-21T03:20:33;8.90;99.90
7846;DHT22;3968;51.424;6.788;2023-11-21T03:23:00;9.00;99.90
7846;DHT22;3968;51.424;6.788;2023-11-21T03:25:25;9.00;99.90
7846;DHT22;3968;51.424;6.788;2023-11-21T03:27:51;9.00;99.90
7846;DHT22;3968;51.424;6.788;2023-11-21T03:30:17;9.00;99.90
7846;DHT22;3968;51.424;6.788;2023-11-21T03:32:42;8.90;99.90
7846;DHT22;3968;51.424;6.788;2023-11-21T03:35:08;8.90;99.90
7846;DHT22;3968;51.424;6.788;2023-11-21T03:37:34;9.00;99.90
7846;DHT22;3968;51.424;6.788;2023-11-21T03:39:59;9.00;99.90
7846;DHT22;3968;51.424;6.788;2023-11-21T03:42:25;9.00;99.90
7846;DHT22;3968;51.424;6.788;2023-11-21T03:44:52;9.00;99.90
7846;DHT22;3968;51.424;6.788;2023-11-21T03:47:18;9.00;99.90
7846;DHT22;3968;51.424;6.788;2023-11-21T03:49:44;9.00;99.90
7846;DHT22;3968;51.424;6.788;2023-11-21T03:52:11;9.10;99.90
7846;DHT22;3968;51.424;6.788;2023-11-21T03:54:37;9.10;99.90
7846;DHT22;3968;51.424;6.788;2023-11-21T03:57:03;9.00;99.90
7846;DHT22;3968;51.424;6.788;2023-11-21T03:59:28;9.00;99.90
7846;DHT22;3968;51.424;6.788;2023-11-21T04:01:57;9.00;99.90
7846;DHT22;3968;51.424;6.788;2023-11-21T04:04:23;9.00;99.90
7846;DHT22;3968;51.424;6.788;2023-11-21T04:06:49;9.00;99.90
7846;DHT22;3968;51.424;6.788;2023-11-21T04:09:14;9.00;99.90
7846;DHT22;3968;51.424;6.788;2023-11-21T04:11:40;9.00;99.90
7846;DHT22;3968;51.424;6.788;2023-11-21T04:14:06;9.00;99.90
7846;DHT22;3968;51.424;6.788;2023-11-21T04:16:31;9.00;99.90
7846;DHT22;3968;51.424;6.788;2023-11-21T04:18:57;9.00;99.90
7846;DHT22;3968;51.424;6.788;2023-11-21T04:21:23;9.00;99.90
7846;DHT22;3968;51.424;6.788;2023-11-21T04:23:49;9.00;99.90
7846;DHT22;3968;51.424;6.788;2023-11-21T04:26:15;9.10;99.90
7846;DHT22;3968;51.424;6.788;2023-11-21T04:28:41;9.10;99.90
7846;DHT22;3968;51.424;6.788;2023-11-21T04:31:07;9.00;99.90
7846;DHT22;3968;51.424;6.788;2023-11-21T04:33:32;9.00;99.90
7846;DHT22;3968;51.424;6.788;2023-11-21T04:35:58;9.10;99.90
7846;DHT22;3968;51.424;6.788;2023-11-21T04:38:24;9.10;99.90
7846;DHT22;3968;51.424;6.788;2023-11-21T04:40:49;9.00;99.90
7846;DHT22;3968;51.424;6.788;2023-11-21T04:43:15;9.10;99.90
7846;DHT22;3968;51.424;6.788;2023-11-21T04:45:41;9.10;99.90
7846;DHT22;3968;51.424;6.788;2023-11-21T04:48:07;9.10;99.90
7846;DHT22;3968;51.424;6.788;2023-11-21T04:50:34;9.10;99.90
7846;DHT22;3968;51.424;6.788;2023-11-21T04:52:59;9.10;99.90
7846;DHT22;3968;51.424;6.788;2023-11-21T04:55:25;9.10;99.90
7846;DHT22;3968;51.424;6.788;2023-11-21T04:57:53;9.00;99.90
7846;DHT22;3968;51.424;6.788;2023-11-21T05:00:19;9.00;99.90
7846;DHT22;3968;51.424;6.788;2023-11-21T05:02:46;9.10;99.90
7846;DHT22;3968;51.424;6.788;2023-11-21T05:05:12;9.10;99.90
7846;DHT22;3968;51.424;6.788;2023-11-21T05:07:39;9.10;99.90
7846;DHT22;3968;51.424;6.788;2023-11-21T05:10:06;9.00;99.90
7846;DHT22;3968;51.424;6.788;2023-11-21T05:12:34;9.10;99.90
7846;DHT22;3968;51.424;6.788;2023-11-21T05:15:04;9.00;99.90
7846;DHT22;3968;51.424;6.788;2023-11-21T05:17:33;9.10;99.90
7846;DHT22;3968;51.424;6.788;2023-11-21T05:19:59;9.00;99.90
7846;DHT22;3968;51.424;6.788;2023-11-21T05:22:29;9.00;99.90
7846;DHT22;3968;51.424;6.788;2023-11-21T05:24:55;9.00;99.90
7846;DHT22;3968;51.424;6.788;2023-11-21T05:27:20;9.00;99.90
7846;DHT22;3968;51.424;6.788;2023-11-21T05:29:46;9.00;99.90
7846;DHT22;3968;51.424;6.788;2023-11-21T05:32:11;9.00;99.90
7846;DHT22;3968;51.424;6.788;2023-11-21T05:34:37;8.90;99.90
7846;DHT22;3968;51.424;6.788;2023-11-21T05:37:02;9.00;99.90
7846;DHT22;3968;51.424;6.788;2023-11-21T05:39:30;8.90;99.90
7846;DHT22;3968;51.424;6.788;2023-11-21T05:41:56;8.90;99.90
7846;DHT22;3968;51.424;6.788;2023-11-21T05:44:23;9.00;99.90
7846;DHT22;3968;51.424;6.788;2023-11-21T05:46:49;9.00;99.90
7846;DHT22;3968;51.424;6.788;2023-11-21T05:49:15;9.00;99.90
7846;DHT22;3968;51.424;6.788;2023-11-21T05:51:41;9.00;99.90
7846;DHT22;3968;51.424;6.788;2023-11-21T05:54:07;9.10;99.90
7846;DHT22;3968;51.424;6.788;2023-11-21T05:56:33;9.10;99.90
7846;DHT22;3968;51.424;6.788;2023-11-21T05:58:59;9.10;99.90
7846;DHT22;3968;51.424;6.788;2023-11-21T06:01:25;9.10;99.90
7846;DHT22;3968;51.424;6.788;2023-11-21T06:03:54;9.20;99.90
7846;DHT22;3968;51.424;6.788;2023-11-21T06:06:21;9.10;99.90
7846;DHT22;3968;51.424;6.788;2023-11-21T06:08:48;9.00;99.90
7846;DHT22;3968;51.424;6.788;2023-11-21T06:11:14;9.10;99.90
7846;DHT22;3968;51.424;6.788;2023-11-21T06:13:40;9.10;99.90
7846;DHT22;3968;51.424;6.788;2023-11-21T06:16:06;9.20;99.90
7846;DHT22;3968;51.424;6.788;2023-11-21T06:18:31;9.20;99.90
7846;DHT22;3968;51.424;6.788;2023-11-21T06:20:57;9.20;99.90
7846;DHT22;3968;51.424;6.788;2023-11-21T06:23:24;9.30;99.90
7846;DHT22;3968;51.424;6.788;2023-11-21T06:25:49;9.30;99.90
7846;DHT22;3968;51.424;6.788;2023-11-21T06:28:15;9.30;99.90
7846;DHT22;3968;51.424;6.788;2023-11-21T06:30:43;9.30;99.90
7846;DHT22;3968;51.424;6.788;2023-11-21T06:33:10;9.40;99.90
7846;DHT22;3968;51.424;6.788;2023-11-21T06:35:36;9.40;99.90
7846;DHT22;3968;51.424;6.788;2023-11-21T06:38:02;9.40;99.90
7846;DHT22;3968;51.424;6.788;2023-11-21T06:40:28;9.40;99.90
7846;DHT22;3968;51.424;6.788;2023-11-21T06:42:53;9.40;99.90
7846;DHT22;3968;51.424;6.788;2023-11-21T06:45:19;9.40;99.90
7846;DHT22;3968;51.424;6.788;2023-11-21T06:47:45;9.40;99.90
7846;DHT22;3968;51.424;6.788;2023-11-21T06:50:11;9.40;99.90
7846;DHT22;3968;51.424;6.788;2023-11-21T06:52:37;9.40;99.90
7846;DHT22;3968;51.424;6.788;2023-11-21T06:55:02;9.40;99.90
7846;DHT22;3968;51.424;6.788;2023-11-21T06:57:28;9.50;99.90
7846;DHT22;3968;51.424;6.788;2023-11-21T06:59:54;9.40;99.90
7846;DHT22;3968;51.424;6.788;2023-11-21T07:02:20;9.50;99.90
7846;DHT22;3968;51.424;6.788;2023-11-21T07:04:46;9.40;99.90
7846;DHT22;3968;51.424;6.788;2023-11-21T07:07:12;9.50;99.90
7846;DHT22;3968;51.424;6.788;2023-11-21T07:09:40;9.50;99.90
7846;DHT22;3968;51.424;6.788;2023-11-21T07:12:06;9.40;99.90
7846;DHT22;3968;51.424;6.788;2023-11-21T07:14:34;9.50;99.90
7846;DHT22;3968;51.424;6.788;2023-11-21T07:16:59;9.50;99.90
7846;DHT22;3968;51.424;6.788;2023-11-21T07:19:25;9.50;99.90
7846;DHT22;3968;51.424;6.788;2023-11-21T07:21:50;9.50;99.90
7846;DHT22;3968;51.424;6.788;2023-11-21T07:24:17;9.50;99.90
7846;DHT22;3968;51.424;6.788;2023-11-21T07:26:42;9.50;99.90
7846;DHT22;3968;51.424;6.788;2023-11-21T07:29:08;9.50;99.90
7846;DHT22;3968;51.424;6.788;2023-11-21T07:31:34;9.60;99.90
7846;DHT22;3968;51.424;6.788;2023-11-21T07:34:00;9.60;99.90
7846;DHT22;3968;51.424;6.788;2023-11-21T07:36:26;9.60;99.90
7846;DHT22;3968;51.424;6.788;2023-11-21T07:38:52;9.60;99.90
7846;DHT22;3968;51.424;6.788;2023-11-21T07:41:18;9.60;99.90
7846;DHT22;3968;51.424;6.788;2023-11-21T07:43:45;9.60;99.90
7846;DHT22;3968;51.424;6.788;2023-11-21T07:46:12;9.60;99.90
7846;DHT22;3968;51.424;6.788;2023-11-21T07:48:39;9.70;99.90
7846;DHT22;3968;51.424;6.788;2023-11-21T07:51:05;9.70;99.90
7846;DHT22;3968;51.424;6.788;2023-11-21T07:53:30;9.70;99.90
7846;DHT22;3968;51.424;6.788;2023-11-21T07:55:57;9.60;99.90
7846;DHT22;3968;51.424;6.788;2023-11-21T07:58:23;9.70;99.90
7846;DHT22;3968;51.424;6.788;2023-11-21T08:00:50;9.70;99.90
7846;DHT22;3968;51.424;6.788;2023-11-21T08:03:16;9.80;99.90
7846;DHT22;3968;51.424;6.788;2023-11-21T08:05:44;9.80;99.90
7846;DHT22;3968;51.424;6.788;2023-11-21T08:08:10;9.90;99.90
7846;DHT22;3968;51.424;6.788;2023-11-21T08:10:36;9.80;99.90
7846;DHT22;3968;51.424;6.788;2023-11-21T08:13:03;9.90;99.90
7846;DHT22;3968;51.424;6.788;2023-11-21T08:15:29;9.90;99.90
7846;DHT22;3968;51.424;6.788;2023-11-21T08:17:56;9.90;99.90
7846;DHT22;3968;51.424;6.788;2023-11-21T08:20:21;10.00;99.90
7846;DHT22;3968;51.424;6.788;2023-11-21T08:22:48;10.00;99.90
7846;DHT22;3968;51.424;6.788;2023-11-21T08:25:13;10.10;99.90
7846;DHT22;3968;51.424;6.788;2023-11-21T08:27:39;10.00;99.90
7846;DHT22;3968;51.424;6.788;2023-11-21T08:30:05;10.10;99.90
7846;DHT22;3968;51.424;6.788;2023-11-21T08:32:32;10.10;99.90
7846;DHT22;3968;51.424;6.788;2023-11-21T08:34:59;10.20;99.90
7846;DHT22;3968;51.424;6.788;2023-11-21T08:37:25;10.30;99.90
7846;DHT22;3968;51.424;6.788;2023-11-21T08:39:52;10.50;99.90
7846;DHT22;3968;51.424;6.788;2023-11-21T08:42:19;10.50;99.90
7846;DHT22;3968;51.424;6.788;2023-11-21T08:44:44;10.60;99.90
7846;DHT22;3968;51.424;6.788;2023-11-21T08:47:11;10.70;99.90
7846;DHT22;3968;51.424;6.788;2023-11-21T08:49:37;10.60;99.90
7846;DHT22;3968;51.424;6.788;2023-11-21T08:52:03;10.60;99.90
7846;DHT22;3968;51.424;6.788;2023-11-21T08:54:31;10.60;99.90
7846;DHT22;3968;51.424;6.788;2023-11-21T08:56:57;10.60;99.90
7846;DHT22;3968;51.424;6.788;2023-11-21T08:59:26;10.50;99.90
7846;DHT22;3968;51.424;6.788;2023-11-21T09:01:52;10.50;99.90
7846;DHT22;3968;51.424;6.788;2023-11-21T09:04:17;10.50;99.90
7846;DHT22;3968;51.424;6.788;2023-11-21T09:06:43;10.60;99.90
7846;DHT22;3968;51.424;6.788;2023-11-21T09:09:09;10.60;99.90
7846;DHT22;3968;51.424;6.788;2023-11-21T09:11:36;10.50;99.90
7846;DHT22;3968;51.424;6.788;2023-11-21T09:14:02;10.50;99.90
7846;DHT22;3968;51.424;6.788;2023-11-21T09:16:28;10.50;99.90
7846;DHT22;3968;51.424;6.788;2023-11-21T09:18:54;10.40;99.90
7846;DHT22;3968;51.424;6.788;2023-11-21T09:21:20;10.50;99.90
7846;DHT22;3968;51.424;6.788;2023-11-21T09:23:46;10.40;99.90
7846;DHT22;3968;51.424;6.788;2023-11-21T09:26:11;10.40;99.90
7846;DHT22;3968;51.424;6.788;2023-11-21T09:28:37;10.50;99.90
7846;DHT22;3968;51.424;6.788;2023-11-21T09:31:04;10.40;99.90
7846;DHT22;3968;51.424;6.788;2023-11-21T09:33:34;10.50;99.90
7846;DHT22;3968;51.424;6.788;2023-11-21T09:36:00;10.50;99.90
7846;DHT22;3968;51.424;6.788;2023-11-21T09:38:26;10.50;99.90
7846;DHT22;3968;51.424;6.788;2023-11-21T09:40:54;10.60;99.90
7846;DHT22;3968;51.424;6.788;2023-11-21T09:43:20;10.60;99.90
7846;DHT22;3968;51.424;6.788;2023-11-21T09:45:48;10.50;99.90
7846;DHT22;3968;51.424;6.788;2023-11-21T09:48:20;10.50;99.90
7846;DHT22;3968;51.424;6.788;2023-11-21T09:50:47;10.50;99.90
7846;DHT22;3968;51.424;6.788;2023-11-21T09:53:17;10.50;99.90
7846;DHT22;3968;51.424;6.788;2023-11-21T09:55:44;10.50;99.90
7846;DHT22;3968;51.424;6.788;2023-11-21T09:58:11;10.50;99.90
7846;DHT22;3968;51.424;6.788;2023-11-21T10:00:46;10.50;99.90
7846;DHT22;3968;51.424;6.788;2023-11-21T10:03:13;10.50;99.90
7846;DHT22;3968;51.424;6.788;2023-11-21T10:05:39;10.40;99.90
7846;DHT22;3968;51.424;6.788;2023-11-21T10:08:08;10.40;99.90
7846;DHT22;3968;51.424;6.788;2023-11-21T10:10:42;10.40;99.90
7846;DHT22;3968;51.424;6.788;2023-11-21T10:13:11;10.40;99.90
7846;DHT22;3968;51.424;6.788;2023-11-21T10:15:38;10.50;99.90
7846;DHT22;3968;51.424;6.788;2023-11-21T10:18:07;10.60;99.90
7846;DHT22;3968;51.424;6.788;2023-11-21T10:20:33;10.50;99.90
7846;DHT22;3968;51.424;6.788;2023-11-21T10:23:00;10.60;99.90
7846;DHT22;3968;51.424;6.788;2023-11-21T10:25:27;10.60;99.90
7846;DHT22;3968;51.424;6.788;2023-11-21T10:27:58;10.60;99.90
7846;DHT22;3968;51.424;6.788;2023-11-21T10:30:33;10.60;99.90
7846;DHT22;3968;51.424;6.788;2023-11-21T10:32:59;10.70;99.90
7846;DHT22;3968;51.424;6.788;2023-11-21T10:38:07;10.70;99.90
7846;DHT22;3968;51.424;6.788;2023-11-21T10:40:38;10.80;99.90
7846;DHT22;3968;51.424;6.788;2023-11-21T10:43:11;10.80;99.90
7846;DHT22;3968;51.424;6.788;2023-11-21T10:45:38;10.80;99.90
7846;DHT22;3968;51.424;6.788;2023-11-21T10:48:09;10.80;99.90
7846;DHT22;3968;51.424;6.788;2023-11-21T10:50:36;10.90;99.90
7846;DHT22;3968;51.424;6.788;2023-11-21T10:53:03;10.90;99.90
7846;DHT22;3968;51.424;6.788;2023-11-21T10:55:32;11.00;99.90
7846;DHT22;3968;51.424;6.788;2023-11-21T10:58:02;11.00;99.90
7846;DHT22;3968;51.424;6.788;2023-11-21T11:00:30;11.00;99.90
7846;DHT22;3968;51.424;6.788;2023-11-21T11:02:56;11.10;99.90
7846;DHT22;3968;51.424;6.788;2023-11-21T11:05:25;11.20;99.90
7846;DHT22;3968;51.424;6.788;2023-11-21T11:07:58;11.20;99.90
7846;DHT22;3968;51.424;6.788;2023-11-21T11:10:27;11.30;99.90
7846;DHT22;3968;51.424;6.788;2023-11-21T11:12:55;11.40;99.90
7846;DHT22;3968;51.424;6.788;2023-11-21T11:15:21;11.40;99.90
7846;DHT22;3968;51.424;6.788;2023-11-21T11:17:48;11.40;99.90
7846;DHT22;3968;51.424;6.788;2023-11-21T11:20:15;11.40;99.90
7846;DHT22;3968;51.424;6.788;2023-11-21T11:28:51;11.30;99.90
7846;DHT22;3968;51.424;6.788;2023-11-21T11:34:30;11.30;99.90
7846;DHT22;3968;51.424;6.788;2023-11-21T11:42:03;11.30;99.90
7846;DHT22;3968;51.424;6.788;2023-11-21T11:47:27;11.20;99.90
7846;DHT22;3968;51.424;6.788;2023-11-21T11:50:08;11.20;99.90
7846;DHT22;3968;51.424;6.788;2023-11-21T11:52:49;11.20;99.90
7846;DHT22;3968;51.424;6.788;2023-11-21T11:55:18;11.20;99.90
7846;DHT22;3968;51.424;6.788;2023-11-21T11:57:45;11.20;99.90
7846;DHT22;3968;51.424;6.788;2023-11-21T12:02:56;11.30;99.90
7846;DHT22;3968;51.424;6.788;2023-11-21T12:05:26;11.40;99.90
7846;DHT22;3968;51.424;6.788;2023-11-21T12:07:59;11.40;99.90
7846;DHT22;3968;51.424;6.788;2023-11-21T12:10:30;11.50;99.90
7846;DHT22;3968;51.424;6.788;2023-11-21T12:13:07;11.50;99.90
7846;DHT22;3968;51.424;6.788;2023-11-21T12:15:36;11.50;99.90
7846;DHT22;3968;51.424;6.788;2023-11-21T12:18:03;11.50;99.90
7846;DHT22;3968;51.424;6.788;2023-11-21T12:20:30;11.50;99.90
7846;DHT22;3968;51.424;6.788;2023-11-21T12:22:58;11.50;99.90
7846;DHT22;3968;51.424;6.788;2023-11-21T12:25:28;11.50;99.90
7846;DHT22;3968;51.424;6.788;2023-11-21T12:27:55;11.60;99.90
7846;DHT22;3968;51.424;6.788;2023-11-21T12:30:23;11.50;99.90
7846;DHT22;3968;51.424;6.788;2023-11-21T12:32:54;11.50;99.90
7846;DHT22;3968;51.424;6.788;2023-11-21T12:35:23;11.50;99.90
7846;DHT22;3968;51.424;6.788;2023-11-21T12:37:49;11.50;99.90
7846;DHT22;3968;51.424;6.788;2023-11-21T12:40:16;11.50;99.90
7846;DHT22;3968;51.424;6.788;2023-11-21T12:42:47;11.50;99.90
7846;DHT22;3968;51.424;6.788;2023-11-21T12:47:56;11.40;99.90
7846;DHT22;3968;51.424;6.788;2023-11-21T12:50:26;11.30;99.90
7846;DHT22;3968;51.424;6.788;2023-11-21T12:53:02;11.30;99.90
7846;DHT22;3968;51.424;6.788;2023-11-21T12:55:32;11.20;99.90
7846;DHT22;3968;51.424;6.788;2023-11-21T12:58:01;11.20;99.90
7846;DHT22;3968;51.424;6.788;2023-11-21T13:00:43;11.20;99.90
7846;DHT22;3968;51.424;6.788;2023-11-21T13:03:12;11.10;99.90
7846;DHT22;3968;51.424;6.788;2023-11-21T13:05:41;11.10;99.90
7846;DHT22;3968;51.424;6.788;2023-11-21T13:08:11;11.10;99.90
7846;DHT22;3968;51.424;6.788;2023-11-21T13:10:43;11.10;99.90
7846;DHT22;3968;51.424;6.788;2023-11-21T13:13:13;11.00;99.90
7846;DHT22;3968;51.424;6.788;2023-11-21T13:15:52;11.00;99.90
7846;DHT22;3968;51.424;6.788;2023-11-21T13:18:19;10.90;99.90
7846;DHT22;3968;51.424;6.788;2023-11-21T13:20:47;10.90;99.90
7846;DHT22;3968;51.424;6.788;2023-11-21T13:23:13;10.90;99.90
7846;DHT22;3968;51.424;6.788;2023-11-21T13:25:42;10.90;99.90
7846;DHT22;3968;51.424;6.788;2023-11-21T13:28:08;10.90;99.90
7846;DHT22;3968;51.424;6.788;2023-11-21T13:30:35;10.90;99.90
7846;DHT22;3968;51.424;6.788;2023-11-21T13:33:02;10.90;99.90
7846;DHT22;3968;51.424;6.788;2023-11-21T13:35:30;10.90;99.90
7846;DHT22;3968;51.424;6.788;2023-11-21T13:38:04;10.90;99.90
7846;DHT22;3968;51.424;6.788;2023-11-21T13:40:32;10.90;99.90
7846;DHT22;3968;51.424;6.788;2023-11-21T13:43:00;10.90;99.90
7846;DHT22;3968;51.424;6.788;2023-11-21T13:45:29;10.90;99.90
7846;DHT22;3968;51.424;6.788;2023-11-21T13:47:56;10.90;99.90
7846;DHT22;3968;51.424;6.788;2023-11-21T13:50:25;10.80;99.90
7846;DHT22;3968;51.424;6.788;2023-11-21T13:52:55;10.90;99.90
7846;DHT22;3968;51.424;6.788;2023-11-21T13:55:21;10.70;99.90
7846;DHT22;3968;51.424;6.788;2023-11-21T13:57:50;10.80;99.90
7846;DHT22;3968;51.424;6.788;2023-11-21T14:00:17;10.70;99.90
7846;DHT22;3968;51.424;6.788;2023-11-21T14:03:13;10.70;99.90
7846;DHT22;3968;51.424;6.788;2023-11-21T14:05:47;10.70;99.90
7846;DHT22;3968;51.424;6.788;2023-11-21T14:08:18;10.70;99.90
7846;DHT22;3968;51.424;6.788;2023-11-21T14:10:45;10.70;99.90
7846;DHT22;3968;51.424;6.788;2023-11-21T14:13:17;10.70;99.90
7846;DHT22;3968;51.424;6.788;2023-11-21T14:15:42;10.70;99.90
7846;DHT22;3968;51.424;6.788;2023-11-21T14:18:12;10.70;99.90
7846;DHT22;3968;51.424;6.788;2023-11-21T14:20:43;10.70;99.90
7846;DHT22;3968;51.424;6.788;2023-11-21T14:23:10;10.70;99.90
7846;DHT22;3968;51.424;6.788;2023-11-21T14:25:37;10.70;99.90
7846;DHT22;3968;51.424;6.788;2023-11-21T14:28:03;10.70;99.90
7846;DHT22;3968;51.424;6.788;2023-11-21T14:30:30;10.70;99.90
7846;DHT22;3968;51.424;6.788;2023-11-21T14:32:58;10.70;99.90
7846;DHT22;3968;51.424;6.788;2023-11-21T14:35:24;10.70;99.90
7846;DHT22;3968;51.424;6.788;2023-11-21T14:37:50;10.70;99.90
7846;DHT22;3968;51.424;6.788;2023-11-21T14:40:16;10.70;99.90
7846;DHT22;3968;51.424;6.788;2023-11-21T14:42:47;10.70;99.90
7846;DHT22;3968;51.424;6.788;2023-11-21T14:45:13;10.70;99.90
7846;DHT22;3968;51.424;6.788;2023-11-21T14:47:44;10.80;99.90
7846;DHT22;3968;51.424;6.788;2023-11-21T14:50:16;10.70;99.90
7846;DHT22;3968;51.424;6.788;2023-11-21T14:53:00;10.70;99.90
7846;DHT22;3968;51.424;6.788;2023-11-21T14:55:26;10.60;99.90
7846;DHT22;3968;51.424;6.788;2023-11-21T14:57:58;10.60;99.90
7846;DHT22;3968;51.424;6.788;2023-11-21T15:00:28;10.60;99.90
7846;DHT22;3968;51.424;6.788;2023-11-21T15:03:00;10.60;99.90
7846;DHT22;3968;51.424;6.788;2023-11-21T15:05:26;10.60;99.90
7846;DHT22;3968;51.424;6.788;2023-11-21T15:07:53;10.60;99.90
7846;DHT22;3968;51.424;6.788;2023-11-21T15:10:22;10.50;99.90
7846;DHT22;3968;51.424;6.788;2023-11-21T15:12:56;10.70;99.90
7846;DHT22;3968;51.424;6.788;2023-11-21T15:15:23;11.20;99.90
7846;DHT22;3968;51.424;6.788;2023-11-21T15:17:48;11.80;99.90
7846;DHT22;3968;51.424;6.788;2023-11-21T15:20:14;12.40;99.90
7846;DHT22;3968;51.424;6.788;2023-11-21T15:22:46;12.80;99.90
7846;DHT22;3968;51.424;6.788;2023-11-21T15:25:12;13.10;99.90
7846;DHT22;3968;51.424;6.788;2023-11-21T15:27:38;13.40;99.90
7846;DHT22;3968;51.424;6.788;2023-11-21T15:30:05;13.80;99.90
7846;DHT22;3968;51.424;6.788;2023-11-21T15:32:31;14.10;99.90
7846;DHT22;3968;51.424;6.788;2023-11-21T15:34:56;14.30;99.90
7846;DHT22;3968;51.424;6.788;2023-11-21T15:37:22;14.50;99.90
7846;DHT22;3968;51.424;6.788;2023-11-21T15:39:48;14.80;99.90
7846;DHT22;3968;51.424;6.788;2023-11-21T15:42:14;15.00;99.90
7846;DHT22;3968;51.424;6.788;2023-11-21T15:44:39;15.10;99.90
7846;DHT22;3968;51.424;6.788;2023-11-21T15:47:05;15.20;99.90
7846;DHT22;3968;51.424;6.788;2023-11-21T15:49:34;15.40;99.90
7846;DHT22;3968;51.424;6.788;2023-11-21T15:52:02;15.50;99.90
7846;DHT22;3968;51.424;6.788;2023-11-21T15:54:28;15.70;99.90
7846;DHT22;3968;51.424;6.788;2023-11-21T15:56:55;15.50;99.90
7846;DHT22;3968;51.424;6.788;2023-11-21T15:59:22;15.30;99.90
7846;DHT22;3968;51.424;6.788;2023-11-21T16:01:49;15.50;99.90
7846;DHT22;3968;51.424;6.788;2023-11-21T16:04:15;15.30;99.90
7846;DHT22;3968;51.424;6.788;2023-11-21T16:06:45;15.20;99.90
7846;DHT22;3968;51.424;6.788;2023-11-21T16:09:11;15.20;99.90
7846;DHT22;3968;51.424;6.788;2023-11-21T16:11:54;15.10;99.90
7846;DHT22;3968;51.424;6.788;2023-11-21T16:14:25;14.50;99.90
7846;DHT22;3968;51.424;6.788;2023-11-21T16:16:55;13.90;99.90
7846;DHT22;3968;51.424;6.788;2023-11-21T16:19:23;13.40;99.90
7846;DHT22;3968;51.424;6.788;2023-11-21T16:21:48;12.90;99.90
7846;DHT22;3968;51.424;6.788;2023-11-21T16:24:14;12.50;99.90
7846;DHT22;3968;51.424;6.788;2023-11-21T16:26:44;12.20;99.90
7846;DHT22;3968;51.424;6.788;2023-11-21T16:29:11;11.90;99.90
7846;DHT22;3968;51.424;6.788;2023-11-21T16:31:40;11.70;99.90
7846;DHT22;3968;51.424;6.788;2023-11-21T16:34:19;11.50;99.90